createdAt,value
2023-04-12T00:01:27.786Z,98712.06
2023-04-12T00:03:56.431Z,98707.92
2023-04-12T00:06:27.757Z,98701.84
2023-04-12T00:08:56.424Z,98703.12
2023-04-12T00:11:26.332Z,98700.08
2023-04-12T00:13:55.242Z,98697.50
2023-04-12T00:16:24.948Z,98699.73
2023-04-12T00:18:54.550Z,98697.12
2023-04-12T00:21:23.979Z,98697.02
2023-04-12T00:23:52.408Z,98694.08
2023-04-12T00:26:21.906Z,98691.38
2023-04-12T00:28:50.579Z,98693.66
2023-04-12T00:31:21.789Z,98697.17
2023-04-12T00:33:50.046Z,98698.96
2023-04-12T00:36:23.846Z,98698.09
2023-04-12T00:38:52.416Z,98694.23
2023-04-12T00:41:21.127Z,98693.36
2023-04-12T00:43:49.955Z,98685.52
2023-04-12T00:46:19.955Z,98680.55
2023-04-12T00:48:48.516Z,98677.67
2023-04-12T00:51:22.492Z,98679.54
2023-04-12T00:53:50.773Z,98672.40
2023-04-12T00:56:23.782Z,98672.70
2023-04-12T00:58:52.498Z,98673.55
2023-04-12T01:01:26.155Z,98668.14
2023-04-12T01:04:01.203Z,98666.48
2023-04-12T01:06:32.529Z,98666.48
2023-04-12T01:09:15.845Z,98663.88
2023-04-12T01:12:05.723Z,98664.12
2023-04-12T01:14:38.170Z,98663.05
2023-04-12T01:17:07.592Z,98662.02
2023-04-12T01:19:53.871Z,98657.08
2023-04-12T01:22:59.906Z,98654.67
2023-04-12T01:25:39.594Z,98655.14
2023-04-12T01:28:10.415Z,98650.04
2023-04-12T01:30:38.890Z,98643.75
2023-04-12T01:33:07.483Z,98639.19
2023-04-12T01:35:36.978Z,98639.99
2023-04-12T01:38:05.188Z,98637.60
2023-04-12T01:40:33.470Z,98638.15
2023-04-12T01:43:12.063Z,98635.64
2023-04-12T01:45:40.527Z,98630.46
2023-04-12T01:48:10.886Z,98625.42
2023-04-12T01:51:06.536Z,98623.52
2023-04-12T01:53:38.805Z,98619.35
2023-04-12T01:56:09.311Z,98619.92
2023-04-12T01:58:40.497Z,98615.93
2023-04-12T02:01:09.278Z,98612.17
2023-04-12T02:03:42.706Z,98610.89
2023-04-12T02:06:11.330Z,98604.33
2023-04-12T02:08:39.523Z,98601.41
2023-04-12T02:11:14.849Z,98597.86
2023-04-12T02:13:45.986Z,98592.29
2023-04-12T02:16:14.420Z,98593.87
2023-04-12T02:18:43.915Z,98590.62
2023-04-12T02:21:14.364Z,98587.48
2023-04-12T02:23:45.156Z,98589.60
2023-04-12T02:26:13.520Z,98586.23
2023-04-12T02:28:43.062Z,98584.77
2023-04-12T02:31:17.189Z,98589.32
2023-04-12T02:33:46.772Z,98586.02
2023-04-12T02:36:15.562Z,98580.65
2023-04-12T02:38:44.589Z,98577.32
2023-04-12T02:41:20.617Z,98578.52
2023-04-12T02:43:49.180Z,98574.08
2023-04-12T02:46:25.444Z,98569.20
2023-04-12T02:48:57.527Z,98571.96
2023-04-12T02:51:33.386Z,98565.80
2023-04-12T02:54:04.151Z,98564.11
2023-04-12T02:56:41.134Z,98564.59
2023-04-12T02:59:29.237Z,98563.34
2023-04-12T03:02:09.243Z,98557.14
2023-04-12T03:04:40.263Z,98555.55
2023-04-12T03:07:14.116Z,98556.64
2023-04-12T03:09:49.846Z,98558.02
2023-04-12T03:12:18.526Z,98554.20
2023-04-12T03:15:08.175Z,98553.72
2023-04-12T03:17:37.220Z,98550.45
2023-04-12T03:20:12.053Z,98547.50
2023-04-12T03:22:45.823Z,98546.09
2023-04-12T03:25:14.107Z,98544.40
2023-04-12T03:27:47.284Z,98541.72
2023-04-12T03:30:17.152Z,98542.60
2023-04-12T03:32:46.172Z,98535.48
2023-04-12T03:35:17.073Z,98531.98
2023-04-12T03:37:46.699Z,98529.75
2023-04-12T03:40:14.941Z,98527.08
2023-04-12T03:42:48.656Z,98526.98
2023-04-12T03:45:17.267Z,98524.10
2023-04-12T03:47:49.882Z,98527.29
2023-04-12T03:50:20.834Z,98525.71
2023-04-12T03:52:55.262Z,98523.02
2023-04-12T03:55:26.351Z,98526.02
2023-04-12T03:57:56.645Z,98521.49
2023-04-12T04:00:25.748Z,98522.19
2023-04-12T04:03:10.717Z,98523.13
2023-04-12T04:05:48.097Z,98520.64
2023-04-12T04:08:20.197Z,98519.13
2023-04-12T04:10:52.770Z,98517.73
2023-04-12T04:13:35.179Z,98517.15
2023-04-12T04:16:07.509Z,98517.95
2023-04-12T04:18:36.240Z,98518.27
2023-04-12T04:21:09.667Z,98516.27
2023-04-12T04:23:39.144Z,98512.74
2023-04-12T04:26:10.621Z,98513.43
2023-04-12T04:28:46.460Z,98515.35
2023-04-12T04:31:18.078Z,98516.27
2023-04-12T04:33:50.979Z,98512.01
2023-04-12T04:36:21.462Z,98512.16
2023-04-12T04:38:59.530Z,98512.65
2023-04-12T04:41:41.613Z,98513.15
2023-04-12T04:44:36.254Z,98516.90
2023-04-12T04:47:08.768Z,98514.47
2023-04-12T04:49:39.591Z,98512.10
2023-04-12T04:52:19.704Z,98512.15
2023-04-12T04:54:48.794Z,98509.02
2023-04-12T04:57:22.525Z,98510.35
2023-04-12T04:59:51.762Z,98508.87
2023-04-12T05:02:21.551Z,98509.41
2023-04-12T05:04:50.066Z,98508.05
2023-04-12T05:07:20.523Z,98506.42
2023-04-12T05:09:49.673Z,98509.23
2023-04-12T05:12:21.574Z,98505.52
2023-04-12T05:15:10.498Z,98506.52
2023-04-12T05:17:40.128Z,98504.48
2023-04-12T05:20:10.951Z,98506.48
2023-04-12T05:22:40.538Z,98505.26
2023-04-12T05:25:09.288Z,98505.64
2023-04-12T05:27:44.408Z,98504.28
2023-04-12T05:30:15.704Z,98500.69
2023-04-12T05:32:45.575Z,98500.82
2023-04-12T05:35:15.117Z,98496.33
2023-04-12T05:37:43.895Z,98495.52
2023-04-12T05:40:14.111Z,98490.36
2023-04-12T05:42:42.897Z,98490.27
2023-04-12T05:45:15.754Z,98484.73
2023-04-12T05:47:45.710Z,98486.25
2023-04-12T05:50:14.632Z,98484.45
2023-04-12T05:52:44.721Z,98484.32
2023-04-12T05:55:14.252Z,98480.88
2023-04-12T05:57:44.584Z,98480.17
2023-04-12T06:00:18.764Z,98481.54
2023-04-12T06:02:48.322Z,98475.36
2023-04-12T06:05:17.942Z,98477.36
2023-04-12T06:07:49.811Z,98476.69
2023-04-12T06:10:18.501Z,98476.02
2023-04-12T06:12:50.871Z,98474.00
2023-04-12T06:15:22.337Z,98468.67
2023-04-12T06:17:56.765Z,98471.58
2023-04-12T06:20:25.730Z,98466.02
2023-04-12T06:22:54.561Z,98462.10
2023-04-12T06:25:23.273Z,98463.86
2023-04-12T06:27:54.350Z,98463.54
2023-04-12T06:30:24.853Z,98459.42
2023-04-12T06:32:54.902Z,98457.48
2023-04-12T06:35:24.969Z,98452.24
2023-04-12T06:37:53.587Z,98453.96
2023-04-12T06:40:21.824Z,98451.58
2023-04-12T06:42:51.923Z,98452.63
2023-04-12T06:45:23.813Z,98451.20
2023-04-12T06:47:52.033Z,98453.92
2023-04-12T06:50:20.428Z,98451.84
2023-04-12T06:52:50.048Z,98453.44
2023-04-12T06:55:18.497Z,98448.98
2023-04-12T06:57:46.882Z,98449.48
2023-04-12T07:00:19.087Z,98449.40
2023-04-12T07:02:48.167Z,98447.00
2023-04-12T07:05:16.983Z,98442.83
2023-04-12T07:07:47.527Z,98448.38
2023-04-12T07:10:16.311Z,98444.97
2023-04-12T07:12:44.524Z,98442.02
2023-04-12T07:15:13.919Z,98440.42
2023-04-12T07:17:43.240Z,98440.56
2023-04-12T07:20:11.973Z,98441.49
2023-04-12T07:22:43.216Z,98435.77
2023-04-12T07:25:13.482Z,98434.02
2023-04-12T07:27:41.714Z,98435.57
2023-04-12T07:30:11.149Z,98434.35
2023-04-12T07:32:39.964Z,98434.89
2023-04-12T07:35:08.830Z,98427.59
2023-04-12T07:37:38.066Z,98429.29
2023-04-12T07:40:07.394Z,98429.73
2023-04-12T07:42:37.033Z,98427.69
2023-04-12T07:45:06.355Z,98427.58
2023-04-12T07:47:36.260Z,98427.30
2023-04-12T07:50:06.268Z,98430.05
2023-04-12T07:52:35.097Z,98430.91
2023-04-12T07:55:08.009Z,98432.56
2023-04-12T07:57:36.682Z,98437.52
2023-04-12T08:00:06.026Z,98434.79
2023-04-12T08:02:41.812Z,98433.70
2023-04-12T08:05:11.844Z,98434.00
2023-04-12T08:07:46.625Z,98437.64
2023-04-12T08:10:15.024Z,98434.34
2023-04-12T08:12:43.939Z,98434.62
2023-04-12T08:15:14.228Z,98433.27
2023-04-12T08:17:44.157Z,98431.08
2023-04-12T08:20:13.943Z,98427.46
2023-04-12T08:22:43.121Z,98426.36
2023-04-12T08:25:11.920Z,98423.27
2023-04-12T08:27:42.294Z,98424.27
2023-04-12T08:30:12.396Z,98421.73
2023-04-12T08:32:41.990Z,98423.36
2023-04-12T08:35:11.335Z,98422.58
2023-04-12T08:37:39.828Z,98421.07
2023-04-12T08:40:08.364Z,98418.13
2023-04-12T08:42:37.767Z,98417.38
2023-04-12T08:45:07.509Z,98415.14
2023-04-12T08:47:39.473Z,98413.02
2023-04-12T08:50:14.395Z,98409.48
2023-04-12T08:52:44.190Z,98407.84
2023-04-12T08:55:13.066Z,98407.52
2023-04-12T08:57:41.950Z,98400.84
2023-04-12T09:00:11.391Z,98401.02
2023-04-12T09:02:47.319Z,98398.16
2023-04-12T09:05:23.388Z,98394.77
2023-04-12T09:08:09.712Z,98394.55
2023-04-12T09:10:43.786Z,98390.38
2023-04-12T09:13:12.285Z,98389.34
2023-04-12T09:15:49.338Z,98388.89
2023-04-12T09:18:23.412Z,98386.16
2023-04-12T09:20:52.707Z,98383.66
2023-04-12T09:23:26.372Z,98385.33
2023-04-12T09:25:59.291Z,98381.52
2023-04-12T09:28:29.989Z,98381.23
2023-04-12T09:30:59.319Z,98378.02
2023-04-12T09:33:32.764Z,98379.41
2023-04-12T09:36:03.031Z,98373.69
2023-04-12T09:38:31.988Z,98370.65
2023-04-12T09:41:21.326Z,98373.35
2023-04-12T09:43:52.363Z,98370.43
2023-04-12T09:46:21.335Z,98371.33
2023-04-12T09:48:51.441Z,98370.98
2023-04-12T09:51:31.453Z,98371.66
2023-04-12T09:54:02.335Z,98368.49
2023-04-12T09:56:32.507Z,98369.08
2023-04-12T09:59:05.890Z,98368.67
2023-04-12T10:01:43.883Z,98365.45
2023-04-12T10:04:12.681Z,98364.83
2023-04-12T10:06:42.053Z,98364.46
2023-04-12T10:09:10.377Z,98365.52
2023-04-12T10:11:41.963Z,98362.14
2023-04-12T10:14:11.933Z,98361.54
2023-04-12T10:16:42.765Z,98357.76
2023-04-12T10:19:11.413Z,98358.39
2023-04-12T10:21:39.901Z,98358.78
2023-04-12T10:24:11.238Z,98359.73
2023-04-12T10:26:44.330Z,98358.22
2023-04-12T10:29:33.855Z,98358.36
2023-04-12T10:32:24.663Z,98357.44
2023-04-12T10:35:00.926Z,98359.85
2023-04-12T10:38:02.077Z,98356.63
2023-04-12T10:40:32.416Z,98355.23
2023-04-12T10:43:19.959Z,98359.66
2023-04-12T10:45:52.287Z,98357.30
2023-04-12T10:48:31.602Z,98361.05
2023-04-12T10:51:26.925Z,98366.71
2023-04-12T10:54:17.056Z,98363.66
2023-04-12T10:56:46.808Z,98365.16
2023-04-12T10:59:44.891Z,98365.25
2023-04-12T11:02:36.721Z,98363.67
2023-04-12T11:05:09.873Z,98362.03
2023-04-12T11:07:53.539Z,98359.39
2023-04-12T11:10:40.938Z,98354.61
2023-04-12T11:13:14.730Z,98351.40
2023-04-12T11:15:44.159Z,98355.52
2023-04-12T11:18:15.949Z,98349.77
2023-04-12T11:20:44.580Z,98350.95
2023-04-12T11:23:15.829Z,98348.26
2023-04-12T11:25:44.448Z,98351.02
2023-04-12T11:28:27.988Z,98348.30
2023-04-12T11:30:59.077Z,98347.34
2023-04-12T11:33:40.053Z,98348.27
2023-04-12T11:36:12.487Z,98349.20
2023-04-12T11:38:43.025Z,98345.08
2023-04-12T11:41:11.741Z,98345.16
2023-04-12T11:43:40.419Z,98344.41
2023-04-12T11:46:08.917Z,98343.92
2023-04-12T11:48:38.956Z,98343.50
2023-04-12T11:51:21.346Z,98340.23
2023-04-12T11:53:55.527Z,98341.41
2023-04-12T11:56:24.189Z,98339.30
2023-04-12T11:58:52.833Z,98338.23
2023-04-12T12:01:22.350Z,98335.25
2023-04-12T12:03:51.968Z,98335.59
2023-04-12T12:06:21.012Z,98334.67
2023-04-12T12:08:53.430Z,98333.59
2023-04-12T12:11:22.376Z,98330.73
2023-04-12T12:13:55.593Z,98331.13
2023-04-12T12:16:25.610Z,98330.06
2023-04-12T12:18:54.083Z,98327.26
2023-04-12T12:21:23.364Z,98323.81
2023-04-12T12:23:51.720Z,98320.70
2023-04-12T12:26:25.792Z,98318.77
2023-04-12T12:28:57.831Z,98318.05
2023-04-12T12:31:28.838Z,98312.95
2023-04-12T12:33:59.369Z,98311.88
2023-04-12T12:36:38.993Z,98313.36
2023-04-12T12:39:12.542Z,98313.79
2023-04-12T12:41:41.425Z,98309.77
2023-04-12T12:44:15.621Z,98305.02
2023-04-12T12:46:55.170Z,98302.88
2023-04-12T12:49:25.450Z,98299.91
2023-04-12T12:51:55.049Z,98298.86
2023-04-12T12:54:39.561Z,98298.04
2023-04-12T12:57:09.366Z,98292.90
2023-04-12T12:59:37.668Z,98291.67
2023-04-12T13:02:07.576Z,98291.96
2023-04-12T13:04:39.340Z,98287.67
2023-04-12T13:07:08.981Z,98288.54
2023-04-12T13:09:37.385Z,98284.73
2023-04-12T13:12:11.773Z,98285.09
2023-04-12T13:14:41.963Z,98284.69
2023-04-12T13:17:10.591Z,98284.31
2023-04-12T13:19:48.007Z,98284.98
2023-04-12T13:22:19.601Z,98282.42
2023-04-12T13:24:48.234Z,98287.11
2023-04-12T13:27:21.552Z,98287.66
2023-04-12T13:29:51.632Z,98284.83
2023-04-12T13:32:20.324Z,98285.38
2023-04-12T13:34:49.184Z,98285.07
2023-04-12T13:37:17.523Z,98287.55
2023-04-12T13:39:46.987Z,98285.52
2023-04-12T13:42:15.245Z,98283.75
2023-04-12T13:44:43.522Z,98287.25
2023-04-12T13:47:13.563Z,98288.63
2023-04-12T13:49:42.133Z,98289.54
2023-04-12T13:52:10.619Z,98290.63
2023-04-12T13:54:38.793Z,98294.58
2023-04-12T13:57:08.195Z,98295.44
2023-04-12T13:59:36.879Z,98298.09
2023-04-12T14:02:05.664Z,98301.14
2023-04-12T14:04:34.344Z,98298.55
2023-04-12T14:07:02.961Z,98303.73
2023-04-12T14:09:35.258Z,98305.36
2023-04-12T14:12:03.651Z,98306.24
2023-04-12T14:14:31.906Z,98307.73
2023-04-12T14:17:02.085Z,98309.08
2023-04-12T14:19:31.093Z,98314.42
2023-04-12T14:21:59.517Z,98314.95
2023-04-12T14:24:32.032Z,98314.52
2023-04-12T14:27:01.224Z,98318.02
2023-04-12T14:29:29.702Z,98318.77
2023-04-12T14:32:01.458Z,98315.65
2023-04-12T14:34:31.282Z,98316.84
2023-04-12T14:37:00.514Z,98317.14
2023-04-12T14:39:30.767Z,98312.33
2023-04-12T14:41:59.110Z,98313.67
2023-04-12T14:44:27.828Z,98311.25
2023-04-12T14:46:56.270Z,98312.94
2023-04-12T14:49:25.637Z,98312.91
2023-04-12T14:51:54.659Z,98314.14
2023-04-12T14:54:23.897Z,98316.80
2023-04-12T14:56:55.775Z,98319.16
2023-04-12T14:59:32.803Z,98316.27
2023-04-12T15:02:02.118Z,98314.69
2023-04-12T15:04:30.985Z,98313.38
2023-04-12T15:07:04.792Z,98310.14
2023-04-12T15:09:35.520Z,98307.13
2023-04-12T15:12:04.471Z,98309.98
2023-04-12T15:14:33.610Z,98309.67
2023-04-12T15:17:03.711Z,98305.42
2023-04-12T15:19:32.528Z,98304.17
2023-04-12T15:22:01.245Z,98302.00
2023-04-12T15:24:34.179Z,98300.46
2023-04-12T15:27:05.845Z,98298.52
2023-04-12T15:29:35.605Z,98297.32
2023-04-12T15:32:04.958Z,98294.67
2023-04-12T15:34:35.354Z,98296.11
2023-04-12T15:37:03.706Z,98295.27
2023-04-12T15:39:35.931Z,98297.52
2023-04-12T15:42:05.387Z,98296.53
2023-04-12T15:44:34.244Z,98297.23
2023-04-12T15:47:11.005Z,98296.94
2023-04-12T15:49:40.513Z,98295.48
2023-04-12T15:52:09.311Z,98295.73
2023-04-12T15:54:43.687Z,98296.26
2023-04-12T15:57:12.669Z,98295.23
2023-04-12T15:59:42.146Z,98297.34
2023-04-12T16:02:12.631Z,98299.73
2023-04-12T16:04:42.901Z,98299.38
2023-04-12T16:07:11.684Z,98299.15
2023-04-12T16:09:42.922Z,98295.29
2023-04-12T16:12:12.018Z,98292.84
2023-04-12T16:14:40.757Z,98291.70
2023-04-12T16:17:10.075Z,98291.59
2023-04-12T16:19:39.275Z,98291.66
2023-04-12T16:22:08.819Z,98289.55
2023-04-12T16:24:42.718Z,98291.23
2023-04-12T16:27:11.087Z,98290.33
2023-04-12T16:29:40.439Z,98291.21
2023-04-12T16:32:14.942Z,98294.18
2023-04-12T16:34:44.734Z,98301.33
2023-04-12T16:37:13.190Z,98302.81
2023-04-12T16:39:46.644Z,98303.39
2023-04-12T16:42:21.183Z,98311.69
2023-04-12T16:45:01.176Z,98309.06
2023-04-12T16:47:40.165Z,98313.23
2023-04-12T16:50:10.590Z,98312.86
2023-04-12T16:52:41.945Z,98312.50
2023-04-12T16:55:17.859Z,98316.46
2023-04-12T16:57:49.913Z,98315.30
2023-04-12T17:00:22.388Z,98319.17
2023-04-12T17:02:52.583Z,98318.30
2023-04-12T17:05:21.810Z,98321.44
2023-04-12T17:07:51.911Z,98323.33
2023-04-12T17:10:21.326Z,98324.65
2023-04-12T17:12:51.438Z,98325.53
2023-04-12T17:15:22.069Z,98327.90
2023-04-12T17:18:02.404Z,98328.59
2023-04-12T17:20:32.452Z,98335.45
2023-04-12T17:23:00.946Z,98332.83
2023-04-12T17:25:36.082Z,98337.52
2023-04-12T17:28:05.221Z,98338.98
2023-04-12T17:30:33.767Z,98337.55
2023-04-12T17:33:07.540Z,98340.23
2023-04-12T17:35:35.895Z,98339.18
2023-04-12T17:38:03.978Z,98340.72
2023-04-12T17:40:33.715Z,98342.23
2023-04-12T17:43:03.660Z,98347.21
2023-04-12T17:45:31.833Z,98345.55
2023-04-12T17:48:00.523Z,98351.16
2023-04-12T17:50:28.794Z,98355.59
2023-04-12T17:52:58.964Z,98351.00
2023-04-12T17:55:27.405Z,98348.42
2023-04-12T17:57:55.903Z,98347.54
2023-04-12T18:00:29.102Z,98349.11
2023-04-12T18:02:57.790Z,98350.88
2023-04-12T18:05:26.243Z,98348.98
2023-04-12T18:07:57.137Z,98345.25
2023-04-12T18:10:26.896Z,98344.03
2023-04-12T18:12:55.831Z,98347.91
2023-04-12T18:15:24.666Z,98348.08
2023-04-12T18:17:55.822Z,98344.05
2023-04-12T18:20:24.842Z,98344.42
2023-04-12T18:22:53.387Z,98342.33
2023-04-12T18:25:25.914Z,98339.20
2023-04-12T18:27:55.763Z,98335.71
2023-04-12T18:30:24.348Z,98334.10
2023-04-12T18:32:53.658Z,98334.85
2023-04-12T18:35:23.059Z,98333.70
2023-04-12T18:37:52.565Z,98330.21
2023-04-12T18:40:21.764Z,98327.47
2023-04-12T18:42:50.634Z,98328.83
2023-04-12T18:45:20.055Z,98327.86
2023-04-12T18:47:48.129Z,98322.36
2023-04-12T18:50:19.468Z,98325.38
2023-04-12T18:52:47.564Z,98323.28
2023-04-12T18:55:20.659Z,98324.77
2023-04-12T18:57:49.846Z,98325.91
2023-04-12T19:00:19.803Z,98327.40
2023-04-12T19:02:49.092Z,98327.96
2023-04-12T19:05:18.688Z,98330.55
2023-04-12T19:07:47.362Z,98329.52
2023-04-12T19:10:16.237Z,98330.92
2023-04-12T19:12:46.188Z,98326.25
2023-04-12T19:15:14.504Z,98330.88
2023-04-12T19:17:43.564Z,98328.39
2023-04-12T19:20:12.178Z,98330.18
2023-04-12T19:22:40.499Z,98336.73
2023-04-12T19:25:10.070Z,98337.27
2023-04-12T19:27:40.942Z,98341.21
2023-04-12T19:30:14.186Z,98338.16
2023-04-12T19:32:49.367Z,98335.02
2023-04-12T19:35:18.797Z,98333.15
2023-04-12T19:37:47.386Z,98334.16
2023-04-12T19:40:16.033Z,98331.67
2023-04-12T19:42:44.471Z,98329.83
2023-04-12T19:45:12.748Z,98332.60
2023-04-12T19:47:47.354Z,98329.51
2023-04-12T19:50:15.793Z,98326.13
2023-04-12T19:52:44.232Z,98323.89
2023-04-12T19:55:12.579Z,98320.13
2023-04-12T19:57:42.146Z,98321.58
2023-04-12T20:00:22.800Z,98313.30
2023-04-12T20:02:53.403Z,98314.54
2023-04-12T20:05:23.332Z,98311.79
2023-04-12T20:07:55.300Z,98317.23
2023-04-12T20:10:23.451Z,98320.71
2023-04-12T20:12:51.726Z,98325.36
2023-04-12T20:15:21.195Z,98317.77
2023-04-12T20:17:52.118Z,98320.41
2023-04-12T20:20:21.527Z,98326.11
2023-04-12T20:22:52.226Z,98331.98
2023-04-12T20:25:20.714Z,98330.66
2023-04-12T20:27:52.319Z,98332.98
2023-04-12T20:30:23.715Z,98335.48
2023-04-12T20:33:01.484Z,98333.20
2023-04-12T20:35:29.902Z,98329.16
2023-04-12T20:37:58.032Z,98332.58
2023-04-12T20:40:30.089Z,98339.36
2023-04-12T20:42:59.922Z,98337.58
2023-04-12T20:45:28.159Z,98338.00
2023-04-12T20:47:56.372Z,98340.23
2023-04-12T20:50:25.364Z,98334.86
2023-04-12T20:52:56.394Z,98333.11
2023-04-12T20:55:33.161Z,98328.58
2023-04-12T20:58:03.504Z,98331.20
2023-04-12T21:00:33.861Z,98326.92
2023-04-12T21:03:03.137Z,98328.86
2023-04-12T21:05:34.753Z,98329.22
2023-04-12T21:08:07.139Z,98322.11
2023-04-12T21:10:35.366Z,98320.33
2023-04-12T21:13:03.535Z,98315.93
2023-04-12T21:15:35.481Z,98321.17
2023-04-12T21:18:04.495Z,98319.67
2023-04-12T21:20:34.265Z,98319.44
2023-04-12T21:23:04.295Z,98320.16
2023-04-12T21:25:34.490Z,98319.86
2023-04-12T21:28:03.608Z,98320.95
2023-04-12T21:30:34.245Z,98318.81
2023-04-12T21:33:04.494Z,98317.22
2023-04-12T21:35:33.073Z,98316.55
2023-04-12T21:38:01.832Z,98320.22
2023-04-12T21:40:30.779Z,98319.33
2023-04-12T21:43:02.204Z,98319.94
2023-04-12T21:45:30.543Z,98317.84
2023-04-12T21:47:59.793Z,98317.20
2023-04-12T21:50:28.224Z,98315.11
2023-04-12T21:52:56.442Z,98317.77
2023-04-12T21:55:28.508Z,98322.13
2023-04-12T21:57:56.643Z,98318.23
2023-04-12T22:00:27.313Z,98320.70
2023-04-12T22:02:56.651Z,98316.20
2023-04-12T22:05:27.988Z,98316.45
2023-04-12T22:07:58.094Z,98309.34
2023-04-12T22:10:26.123Z,98308.09
2023-04-12T22:12:56.369Z,98306.39
2023-04-12T22:15:28.534Z,98307.55
2023-04-12T22:17:57.080Z,98310.44
2023-04-12T22:20:29.784Z,98311.66
2023-04-12T22:22:58.472Z,98305.70
2023-04-12T22:25:29.687Z,98308.73
2023-04-12T22:27:58.326Z,98306.86
2023-04-12T22:30:27.360Z,98309.80
2023-04-12T22:32:55.780Z,98306.88
2023-04-12T22:35:25.779Z,98302.10
2023-04-12T22:37:53.872Z,98294.30
2023-04-12T22:40:22.625Z,98288.34
2023-04-12T22:42:50.651Z,98294.36
2023-04-12T22:45:19.982Z,98290.04
2023-04-12T22:47:48.507Z,98287.33
2023-04-12T22:50:17.633Z,98291.16
2023-04-12T22:52:50.109Z,98289.17
2023-04-12T22:55:18.756Z,98287.63
2023-04-12T22:57:49.504Z,98291.75
2023-04-12T23:00:18.373Z,98295.91
2023-04-12T23:02:47.879Z,98296.40
2023-04-12T23:05:16.669Z,98291.77
2023-04-12T23:07:49.461Z,98281.36
2023-04-12T23:10:18.444Z,98280.89
2023-04-12T23:12:49.369Z,98282.98
2023-04-12T23:15:23.536Z,98283.42
2023-04-12T23:17:52.373Z,98280.73
2023-04-12T23:20:20.521Z,98282.25
2023-04-12T23:22:57.467Z,98273.34
2023-04-12T23:25:44.975Z,98265.48
2023-04-12T23:28:14.301Z,98262.98
2023-04-12T23:30:43.387Z,98256.88
2023-04-12T23:33:12.427Z,98247.42
2023-04-12T23:35:41.388Z,98246.70
2023-04-12T23:38:15.723Z,98240.95
2023-04-12T23:40:44.093Z,98239.05
2023-04-12T23:43:12.642Z,98238.75
2023-04-12T23:45:41.483Z,98240.57
2023-04-12T23:48:09.956Z,98244.33
2023-04-12T23:50:39.212Z,98243.17
2023-04-12T23:53:07.601Z,98235.29
2023-04-12T23:55:36.574Z,98236.41
2023-04-12T23:58:04.786Z,98239.34
